Flight Track Log - Related Links

Times and Time Zones

All times are in EDT time to prevent confusion due to time zone crossing. See the RPA5397 flight status page for this flight to view local times or setup timezone preferences in your user account.

Time Position Orientation Groundspeed Altitude Reporting Facility
EDT Latitude Longitude Course Direction KTS MPH feet Rate Location/Type
Fri 12:52:35 PM 36.1036 -79.7208 54° Northeast 351 404 11,300  Level Washington Center
Fri 12:53:35 PM 36.1756 -79.6294 46° Northeast 363 418 12,700 2,237 Climbing Washington Center
Fri 12:54:00 PM 36.2578 -79.5594 55° Northeast  Level FlightAware Approximate
Fri 12:54:33 PM 36.2539 -79.5328 45° Northeast 380 437 15,700  Level Washington Center
Fri 12:55:00 PM 36.3156 -79.4677 39° Northeast  Level FlightAware Approximate
Fri 12:55:33 PM 36.3281 -79.4336 47° Northeast 389 448 17,800  Level Washington Center
Fri 12:56:00 PM 36.3745 -79.3759 53° Northeast  Level FlightAware Approximate
Fri 12:56:34 PM 36.4000 -79.3364 47° Northeast 403 464 19,600  Level Washington Center
Fri 12:57:00 PM 36.4304 -79.2813 54° Northeast  Level FlightAware Approximate
Fri 12:57:35 PM 36.4767 -79.2211 50° Northeast 416 479 21,200  Level Washington Center
Fri 12:58:35 PM 36.5658 -79.0936 49° Northeast 438 504 23,000 915 Climbing Washington Center
Fri 12:59:33 PM 36.6467 -78.9728 50° Northeast 445 512 23,000 807 Level Washington Center
Fri 01:00:34 PM 36.7253 -78.8494 51° Northeast 451 519 24,600 1,475 Climbing Washington Center
Fri 01:01:35 PM 36.8078 -78.7256 50° Northeast 451 519 26,000 1,210 Climbing Washington Center
Fri 01:02:33 PM 36.8836 -78.6119 50° Northeast 458 527 27,000 1,059 Climbing Washington Center
Fri 01:03:34 PM 36.9703 -78.4906 48° Northeast 458 527 28,100 984 Climbing Washington Center
Fri 01:04:35 PM 37.0747 -78.3903 37° Northeast 458 527 29,000 443 Climbing Washington Center
Fri 01:05:36 PM 37.1878 -78.2797 38° Northeast 469 540 29,000  Level Washington Center
Fri 01:06:33 PM 37.2903 -78.1764 39° Northeast 469 540 29,000 -101 Level Washington Center
Fri 01:07:35 PM 37.3756 -78.0928 38° Northeast 456 525 28,800 -934 Descending Washington Center
Fri 01:08:35 PM 37.4842 -77.9867 38° Northeast 451 519 27,100 -900 Descending Washington Center
Fri 01:09:35 PM 37.5778 -77.8925 39° Northeast 464 534 27,000 -51 Descending Washington Center
Fri 01:10:33 PM 37.6797 -77.7881 39° Northeast 464 534 27,000  Level Washington Center
Fri 01:11:33 PM 37.7817 -77.6858 38° Northeast 464 534 27,000  Level Washington Center
Fri 01:12:34 PM 37.8856 -77.5836 38° Northeast 469 540 27,000  Level Washington Center
Fri 01:13:34 PM 37.9875 -77.4808 38° Northeast 469 540 27,000 -500 Level Washington Center
Fri 01:14:34 PM 38.0889 -77.3831 37° Northeast 464 534 26,000 -1,289 Descending Washington Center
Fri 01:15:35 PM 38.1883 -77.2825 38° Northeast 464 534 24,400 -1,008 Descending Washington Center
Fri 01:16:33 PM 38.2836 -77.1814 40° Northeast 459 528 24,000 -202 Descending Washington Center
Fri 01:17:34 PM 38.3789 -77.0803 40° Northeast 452 520 24,000  Level Washington Center
Fri 01:18:35 PM 38.4758 -76.9814 39° Northeast 447 514 24,000  Level Washington Center
Fri 01:19:36 PM 38.5728 -76.8822 39° Northeast 447 514 24,000 -153 Level Washington Center
Fri 01:20:33 PM 38.6783 -76.7697 40° Northeast 452 520 23,700 -763 Descending Washington Center
Fri 01:21:34 PM 38.7211 -76.6533 65° Northeast 439 505 22,500 -1,770 Descending Washington Center
Fri 01:22:35 PM 38.7600 -76.4728 75° East 430 495 20,100 -2,067 Descending Washington Center
Fri 01:23:33 PM 38.7839 -76.3558 75° East 424 488 18,400 -2,136 Descending Washington Center
Fri 01:24:33 PM 38.8181 -76.1858 75° East 418 481 15,900 -1,700 Descending Washington Center
Fri 01:25:33 PM 38.8478 -76.0633 73° East 405 466 15,000 -446 Descending Washington Center
Fri 01:26:34 PM 38.8753 -75.9222 76° East 400 460 15,000 -197 Level Washington Center
Fri 01:27:35 PM 38.9028 -75.7811 76° East 394 453 14,600 -706 Descending Washington Center
Fri 01:28:33 PM 38.9319 -75.6422 75° East 394 453 13,600 -908 Descending Washington Center
Fri 01:29:34 PM 38.9592 -75.5036 76° East 394 453 12,800 -942 Descending Washington Center
Fri 01:30:34 PM 38.9839 -75.3728 76° East 388 447 11,700 -942 Descending Washington Center
Fri 01:31:35 PM 39.0108 -75.2417 75° East 382 440 10,900 -605 Descending Washington Center
Fri 01:32:33 PM 39.0375 -75.1133 75° East 377 434 10,500 -403 Descending Washington Center
Fri 01:33:34 PM 39.0597 -74.9928 77° East 362 417 10,100 -989 Descending Washington Center
Fri 01:34:04 PM 39.0697 -74.9258 79° East 302 348 9,000 -1,574 Descending Washington Center
Fri 01:34:35 PM 39.0842 -74.8911 62° Northeast 325 374 8,500 -1,483 Descending Washington Center
Fri 01:35:33 PM 39.1506 -74.8342 34° Northeast 289 333 6,800 -1,563 Descending Washington Center
Fri 01:36:34 PM 39.2233 -74.7986 21° North 268 308 5,400 -1,240 Descending Washington Center
Fri 01:37:34 PM 39.2917 -74.7522 28° Northeast 268 308 4,300 -1,333 Descending Washington Center
Fri 01:38:31 PM 39.3581 -74.7058 28° Northeast 268 308 2,800 -1,339 Descending Washington Center
Fri 01:39:35 PM 39.4328 -74.6644 23° Northeast 263 303 1,600 -912 Descending Washington Center
Fri 01:40:36 PM 39.4806 -74.6289 30° Northeast 232 267 900 -689 Descending Washington Center

Login

Don't have an account? Register now (free) for customized features, flight alerts, and more!